createdAt,value
2022-11-29T00:03:20.922Z,11.85
2022-11-29T00:07:33.292Z,8.63
2022-11-29T00:12:03.967Z,9.32
2022-11-29T00:16:16.600Z,9.80
2022-11-29T00:20:28.914Z,7.18
2022-11-29T00:24:43.207Z,7.85
2022-11-29T00:28:55.711Z,10.63
2022-11-29T00:33:08.063Z,12.55
2022-11-29T00:37:21.177Z,9.63
2022-11-29T00:41:33.707Z,10.45
2022-11-29T00:45:46.063Z,10.80
2022-11-29T00:49:58.362Z,7.05
2022-11-29T00:54:10.615Z,9.60
2022-11-29T00:58:23.743Z,9.25
2022-11-29T01:02:36.095Z,12.82
2022-11-29T01:06:51.938Z,9.18
2022-11-29T01:11:20.687Z,8.88
2022-11-29T01:15:33.297Z,11.80
2022-11-29T01:19:50.637Z,12.50
2022-11-29T01:24:03.379Z,10.98
2022-11-29T01:28:15.654Z,10.15
2022-11-29T01:32:28.463Z,9.70
2022-11-29T01:36:41.216Z,12.07
2022-11-29T01:41:02.588Z,10.10
2022-11-29T01:45:23.626Z,11.68
2022-11-29T01:49:43.662Z,9.68
2022-11-29T01:53:56.667Z,10.10
2022-11-29T01:58:10.080Z,11.15
2022-11-29T02:02:33.414Z,10.82
2022-11-29T02:06:47.257Z,7.85
2022-11-29T02:11:29.793Z,9.25
2022-11-29T02:15:54.756Z,9.63
2022-11-29T02:20:40.855Z,10.20
2022-11-29T02:25:22.772Z,9.05
2022-11-29T02:30:05.757Z,10.00
2022-11-29T02:34:31.686Z,9.25
2022-11-29T02:39:28.802Z,10.57
2022-11-29T02:44:03.890Z,8.20
2022-11-29T02:48:42.105Z,7.78
2022-11-29T02:53:06.924Z,9.50
2022-11-29T02:57:44.054Z,10.98
2022-11-29T03:02:12.812Z,7.47
2022-11-29T03:06:36.523Z,7.38
2022-11-29T03:11:07.521Z,7.63
2022-11-29T03:15:36.995Z,8.38
2022-11-29T03:20:14.771Z,10.55
2022-11-29T03:24:42.797Z,9.77
2022-11-29T03:29:24.106Z,8.80
2022-11-29T03:34:21.462Z,7.38
2022-11-29T03:38:42.813Z,7.82
2022-11-29T03:43:06.719Z,8.90
2022-11-29T03:47:40.831Z,10.18
2022-11-29T03:52:14.971Z,6.70
2022-11-29T03:56:40.587Z,10.63
2022-11-29T04:01:01.037Z,7.72
2022-11-29T04:05:22.418Z,8.68
2022-11-29T04:09:37.446Z,4.90
2022-11-29T04:14:11.589Z,7.85
2022-11-29T04:19:08.494Z,6.65
2022-11-29T04:23:39.606Z,6.05
2022-11-29T04:28:17.167Z,8.63
2022-11-29T04:32:51.329Z,8.32
2022-11-29T04:37:21.819Z,5.45
2022-11-29T04:41:59.987Z,6.80
2022-11-29T04:46:29.983Z,5.35
2022-11-29T04:50:53.959Z,8.13
2022-11-29T04:55:31.008Z,7.82
2022-11-29T05:00:10.700Z,6.95
2022-11-29T05:04:30.985Z,9.02
2022-11-29T05:08:56.820Z,7.35
2022-11-29T05:13:28.806Z,6.88
2022-11-29T05:18:06.035Z,6.72
2022-11-29T05:22:31.991Z,9.07
2022-11-29T05:27:17.190Z,6.70
2022-11-29T05:31:49.862Z,8.27
2022-11-29T05:36:38.977Z,7.63
2022-11-29T05:45:18.979Z,8.05
2022-11-29T05:49:44.187Z,6.13
2022-11-29T05:54:19.217Z,6.20
2022-11-29T05:58:55.198Z,6.00
2022-11-29T06:03:24.446Z,7.78
2022-11-29T06:12:19.627Z,7.07
2022-11-29T06:16:54.298Z,11.10
2022-11-29T06:21:29.213Z,7.57
2022-11-29T06:26:03.648Z,6.63
2022-11-29T06:30:23.902Z,8.27
2022-11-29T06:34:59.970Z,7.10
2022-11-29T06:39:12.564Z,7.50
2022-11-29T06:43:28.418Z,11.23
2022-11-29T06:47:53.453Z,7.45
2022-11-29T06:52:34.878Z,7.05
2022-11-29T06:57:03.805Z,7.35
2022-11-29T07:01:28.137Z,8.43
2022-11-29T07:05:41.629Z,7.28
2022-11-29T07:10:00.318Z,8.60
2022-11-29T07:14:13.431Z,10.43
2022-11-29T07:18:45.384Z,8.52
2022-11-29T07:23:14.039Z,8.57
2022-11-29T07:27:49.480Z,7.10
2022-11-29T07:32:29.675Z,9.80
2022-11-29T07:36:59.728Z,8.20
2022-11-29T07:41:18.319Z,9.57
2022-11-29T07:45:34.183Z,10.05
2022-11-29T07:49:46.474Z,6.93
2022-11-29T07:53:58.869Z,7.63
2022-11-29T07:58:15.683Z,6.03
2022-11-29T08:02:29.644Z,7.93
2022-11-29T08:06:41.982Z,6.47
2022-11-29T08:10:54.337Z,7.32
2022-11-29T08:15:07.372Z,9.32
2022-11-29T08:19:19.645Z,7.22
2022-11-29T08:23:31.934Z,7.68
2022-11-29T08:27:44.178Z,8.18
2022-11-29T08:31:56.634Z,8.68
2022-11-29T08:36:14.403Z,6.28
2022-11-29T08:40:26.787Z,7.63
2022-11-29T08:44:39.049Z,10.20
2022-11-29T08:48:51.456Z,6.38
2022-11-29T08:53:22.019Z,7.35
2022-11-29T08:57:41.577Z,8.80
2022-11-29T09:01:53.954Z,6.40
2022-11-29T09:06:12.699Z,6.60
2022-11-29T09:10:25.167Z,8.13
2022-11-29T09:14:37.458Z,9.05
2022-11-29T09:18:52.173Z,5.63
2022-11-29T09:23:04.885Z,7.70
2022-11-29T09:27:17.205Z,8.07
2022-11-29T09:31:30.682Z,7.30
2022-11-29T09:35:43.343Z,7.10
2022-11-29T09:39:55.678Z,7.20
2022-11-29T09:44:07.891Z,5.43
2022-11-29T09:48:26.656Z,8.48
2022-11-29T09:52:50.725Z,7.53
2022-11-29T09:57:10.518Z,7.63
2022-11-29T10:01:35.048Z,10.80
2022-11-29T10:06:00.708Z,6.25
2022-11-29T10:10:31.443Z,5.97
2022-11-29T10:14:57.204Z,7.20
2022-11-29T10:19:50.407Z,6.45
2022-11-29T10:24:07.834Z,4.82
2022-11-29T10:28:23.046Z,6.03
2022-11-29T10:32:35.316Z,5.38
2022-11-29T10:36:51.406Z,6.43
2022-11-29T10:41:09.830Z,6.68
2022-11-29T10:45:39.827Z,5.37
2022-11-29T10:49:52.260Z,5.15
2022-11-29T10:54:30.450Z,6.78
2022-11-29T10:59:05.238Z,6.20
2022-11-29T11:03:48.954Z,7.63
2022-11-29T11:08:06.254Z,7.47
2022-11-29T11:12:24.743Z,6.90
2022-11-29T11:16:37.759Z,6.90
2022-11-29T11:20:55.675Z,8.63
2022-11-29T11:25:28.195Z,7.60
2022-11-29T11:29:45.563Z,6.93
2022-11-29T11:34:18.232Z,6.97
2022-11-29T11:38:31.056Z,7.03
2022-11-29T11:42:43.606Z,5.15
2022-11-29T11:46:56.543Z,6.65
2022-11-29T11:51:21.180Z,6.25
2022-11-29T11:55:36.988Z,5.90
2022-11-29T11:59:51.058Z,5.47
2022-11-29T12:04:18.073Z,4.63
2022-11-29T12:08:30.613Z,5.07
2022-11-29T12:12:45.201Z,7.30
2022-11-29T12:17:08.592Z,4.90
2022-11-29T12:21:26.419Z,6.22
2022-11-29T12:26:03.532Z,4.80
2022-11-29T12:30:16.422Z,6.30
2022-11-29T12:34:51.496Z,6.30
2022-11-29T12:39:10.334Z,6.55
2022-11-29T12:44:14.815Z,9.32
2022-11-29T12:48:56.838Z,6.45
2022-11-29T12:53:33.708Z,6.30
2022-11-29T12:57:57.916Z,6.60
2022-11-29T13:02:34.275Z,6.97
2022-11-29T13:07:17.600Z,6.15
2022-11-29T13:11:37.106Z,7.88
2022-11-29T13:16:31.025Z,8.40
2022-11-29T13:20:53.603Z,9.05
2022-11-29T13:25:19.015Z,8.60
2022-11-29T13:29:31.930Z,8.13
2022-11-29T13:33:47.203Z,7.85
2022-11-29T13:38:08.987Z,7.70
2022-11-29T13:42:46.224Z,9.32
2022-11-29T13:47:08.191Z,10.60
2022-11-29T13:51:38.431Z,9.15
2022-11-29T13:56:00.775Z,9.38
2022-11-29T14:00:31.982Z,8.15
2022-11-29T14:04:46.980Z,9.88
2022-11-29T14:09:19.610Z,9.63
2022-11-29T14:13:44.637Z,10.80
2022-11-29T14:18:38.746Z,8.73
2022-11-29T14:23:06.064Z,12.82
2022-11-29T14:27:21.320Z,10.57
2022-11-29T14:31:49.325Z,12.50
2022-11-29T14:36:26.127Z,13.65
2022-11-29T14:40:41.193Z,14.32
2022-11-29T14:45:05.503Z,11.85
2022-11-29T14:49:25.341Z,15.40
2022-11-29T14:53:39.353Z,16.35
2022-11-29T14:57:51.971Z,16.35
2022-11-29T15:02:20.854Z,16.52
2022-11-29T15:06:38.213Z,19.73
2022-11-29T15:10:58.378Z,17.38
2022-11-29T15:15:28.949Z,18.52
2022-11-29T15:20:13.603Z,21.40
2022-11-29T15:24:28.764Z,17.02
2022-11-29T15:28:42.481Z,20.17
2022-11-29T15:32:55.107Z,17.08
2022-11-29T15:37:07.481Z,17.05
2022-11-29T15:41:30.904Z,17.65
2022-11-29T15:45:57.516Z,19.73
2022-11-29T15:50:26.429Z,16.73
2022-11-29T15:54:46.532Z,17.73
2022-11-29T15:59:33.910Z,17.77
2022-11-29T16:03:47.865Z,16.90
2022-11-29T16:08:17.950Z,14.70
2022-11-29T16:13:03.091Z,19.15
2022-11-29T16:17:16.125Z,17.73
2022-11-29T16:21:29.862Z,19.15
2022-11-29T16:25:55.631Z,20.80
2022-11-29T16:30:08.830Z,20.70
2022-11-29T16:34:31.427Z,21.05
2022-11-29T16:38:50.063Z,20.77
2022-11-29T16:43:07.265Z,25.45
2022-11-29T16:47:23.552Z,24.77
2022-11-29T16:51:56.078Z,22.67
2022-11-29T16:56:13.214Z,27.30
2022-11-29T17:00:32.356Z,24.67
2022-11-29T17:09:00.172Z,18.45
2022-11-29T17:13:12.983Z,19.45
2022-11-29T17:17:25.265Z,22.17
2022-11-29T17:21:37.679Z,19.48
2022-11-29T17:25:59.800Z,22.13
2022-11-29T17:30:12.629Z,19.10
2022-11-29T17:34:25.096Z,23.00
2022-11-29T17:38:37.700Z,17.42
2022-11-29T17:42:49.995Z,17.25
2022-11-29T17:47:02.367Z,17.92
2022-11-29T17:51:43.614Z,15.35
2022-11-29T17:55:49.057Z,16.73
2022-11-29T18:00:01.367Z,17.23
2022-11-29T18:04:13.711Z,16.42
2022-11-29T18:08:26.002Z,14.55
2022-11-29T18:12:38.322Z,14.93
2022-11-29T18:16:51.132Z,15.52
2022-11-29T18:21:06.046Z,15.95
2022-11-29T18:25:38.173Z,17.00
2022-11-29T18:29:57.586Z,13.38
2022-11-29T18:34:11.942Z,17.15
2022-11-29T18:38:24.203Z,13.23
2022-11-29T18:42:36.478Z,15.55
2022-11-29T18:46:49.175Z,17.05
2022-11-29T18:51:10.491Z,15.25
2022-11-29T18:55:33.198Z,18.73
2022-11-29T18:59:45.531Z,16.17
2022-11-29T19:04:00.102Z,17.40
2022-11-29T19:08:12.538Z,18.08
2022-11-29T19:12:24.814Z,16.52
2022-11-29T19:16:37.130Z,16.60
2022-11-29T19:20:49.708Z,16.83
2022-11-29T19:25:01.991Z,15.98
2022-11-29T19:29:14.916Z,16.52
2022-11-29T19:33:27.262Z,18.60
2022-11-29T19:37:39.579Z,18.00
2022-11-29T19:41:51.820Z,17.33
2022-11-29T19:46:15.332Z,17.52
2022-11-29T19:50:27.706Z,13.27
2022-11-29T19:54:39.949Z,18.60
2022-11-29T19:58:53.133Z,14.43
2022-11-29T20:03:05.470Z,18.70
2022-11-29T20:07:17.783Z,16.25
2022-11-29T20:11:30.735Z,16.05
2022-11-29T20:15:43.058Z,19.58
2022-11-29T20:19:55.429Z,17.73
2022-11-29T20:24:08.571Z,17.95
2022-11-29T20:28:20.848Z,20.05
2022-11-29T20:32:33.282Z,17.80
2022-11-29T20:36:51.779Z,21.35
2022-11-29T20:41:12.452Z,19.83
2022-11-29T20:45:26.210Z,21.15
2022-11-29T20:49:38.672Z,18.92
2022-11-29T20:53:51.002Z,19.05
2022-11-29T20:58:03.277Z,19.05
2022-11-29T21:02:15.593Z,18.85
2022-11-29T21:06:27.961Z,19.33
2022-11-29T21:10:40.712Z,22.88
2022-11-29T21:14:53.273Z,23.08
2022-11-29T21:19:06.053Z,22.55
2022-11-29T21:23:33.988Z,20.83
2022-11-29T21:27:57.332Z,23.75
2022-11-29T21:32:21.835Z,21.95
2022-11-29T21:36:34.144Z,19.90
2022-11-29T21:40:46.511Z,27.35
2022-11-29T21:45:13.414Z,27.27
2022-11-29T21:49:28.384Z,23.70
2022-11-29T21:53:41.531Z,27.60
2022-11-29T21:57:53.861Z,20.42
2022-11-29T22:02:06.487Z,29.13
2022-11-29T22:06:21.180Z,25.55
2022-11-29T22:10:33.663Z,30.83
2022-11-29T22:14:46.324Z,24.85
2022-11-29T22:18:58.843Z,23.05
2022-11-29T22:23:11.530Z,28.58
2022-11-29T22:27:23.814Z,30.15
2022-11-29T22:31:37.124Z,19.75
2022-11-29T22:35:49.422Z,23.08
2022-11-29T22:40:01.678Z,22.95
2022-11-29T22:44:13.958Z,25.73
2022-11-29T22:48:26.227Z,24.63
2022-11-29T22:52:38.555Z,26.77
2022-11-29T22:56:51.018Z,26.88
2022-11-29T23:01:08.360Z,27.35
2022-11-29T23:05:20.707Z,22.65
2022-11-29T23:09:32.981Z,30.73
2022-11-29T23:13:46.140Z,35.10
2022-11-29T23:17:58.468Z,27.20
2022-11-29T23:22:10.770Z,28.95
2022-11-29T23:26:24.705Z,21.75
2022-11-29T23:30:37.097Z,22.65
2022-11-29T23:34:49.424Z,27.50
2022-11-29T23:39:01.839Z,23.00
2022-11-29T23:43:22.446Z,21.13
2022-11-29T23:47:34.712Z,21.85
2022-11-29T23:51:46.993Z,22.70
2022-11-29T23:56:08.358Z,25.67
